Stuttgart, Germany
Current Conditions -  °F | °C
As of 3:50 PM on Monday 24 Nov 2014 (Local Time) from EDDS Reporting Station
Broken Clouds Broken Clouds  
Wind Chill: 44°   Ceiling: 900
Heat Index: 48°   Visibility: 6mi
Dew Point: 45°   Wind: 10mph
Humidity: 87%   Direction: 340°NNW
Pressure: 30.24"   Gusts: NA
Location:  48.78°N, 9.18°E
Report Text: EDDS 241450Z 34009KT 9999 BKN009 BKN013 09/07 Q1024 BECMG BKN010
Loading
Personal Weather Stations






























Interactive Weather Map New forecast layout! Learn more

10-Day Weather Forecast

Advertisements
Track Severe Weather on mobile